createdAt,value
2022-12-08T17:12:47.221Z,99156.16
2022-12-08T17:15:19.629Z,99151.28
2022-12-08T17:17:48.047Z,99156.63
2022-12-08T17:20:19.160Z,99158.50
2022-12-08T17:22:48.493Z,99162.25
2022-12-08T17:25:17.003Z,99161.31
2022-12-08T17:27:46.992Z,99159.16
2022-12-08T17:30:17.628Z,99165.28
2022-12-08T17:32:46.887Z,99151.94
2022-12-08T17:35:15.775Z,99149.91
2022-12-08T17:37:44.709Z,99152.44
2022-12-08T17:40:13.379Z,99152.88
2022-12-08T17:42:42.377Z,99145.50
2022-12-08T17:45:13.118Z,99154.41
2022-12-08T17:47:41.738Z,99155.13
2022-12-08T17:50:11.037Z,99153.47
2022-12-08T17:52:39.716Z,99147.28
2022-12-08T17:55:09.167Z,99140.81
2022-12-08T17:57:37.394Z,99137.16
2022-12-08T18:00:08.689Z,99137.19
2022-12-08T18:02:42.143Z,99138.47
2022-12-08T18:05:10.963Z,99136.59
2022-12-08T18:07:39.217Z,99140.25
2022-12-08T18:10:09.051Z,99146.19
2022-12-08T18:12:37.815Z,99154.28
2022-12-08T18:15:09.922Z,99145.50
2022-12-08T18:17:38.424Z,99149.59
2022-12-08T18:20:10.920Z,99153.22
2022-12-08T18:22:39.466Z,99144.44
2022-12-08T18:25:10.594Z,99141.53
2022-12-08T18:27:43.192Z,99151.94
2022-12-08T18:30:17.893Z,99144.66
2022-12-08T18:32:47.241Z,99143.84
2022-12-08T18:35:17.330Z,99143.84
2022-12-08T18:37:46.951Z,99145.38
2022-12-08T18:40:16.430Z,99144.44
2022-12-08T18:42:44.990Z,99139.88
2022-12-08T18:45:16.735Z,99143.88
2022-12-08T18:47:47.765Z,99144.13
2022-12-08T18:50:18.718Z,99142.13
2022-12-08T18:52:48.135Z,99143.97
2022-12-08T18:55:17.004Z,99136.97
2022-12-08T18:57:45.385Z,99144.56
2022-12-08T19:00:16.808Z,99144.22
2022-12-08T19:02:45.827Z,99140.13
2022-12-08T19:05:16.344Z,99144.25
2022-12-08T19:07:46.868Z,99138.50
2022-12-08T19:10:15.354Z,99141.16
2022-12-08T19:12:44.479Z,99143.06
2022-12-08T19:15:16.241Z,99133.31
2022-12-08T19:17:44.777Z,99147.56
2022-12-08T19:20:14.858Z,99139.66
2022-12-08T19:22:43.271Z,99144.56
2022-12-08T19:25:13.393Z,99136.47
2022-12-08T19:27:41.686Z,99143.50
2022-12-08T19:30:12.569Z,99151.47
2022-12-08T19:32:41.006Z,99147.25
2022-12-08T19:35:10.201Z,99152.53
2022-12-08T19:37:39.002Z,99146.78
2022-12-08T19:40:26.749Z,99150.53
2022-12-08T19:43:14.275Z,99144.25
2022-12-08T19:45:42.771Z,99144.81
2022-12-08T19:48:12.840Z,99139.88
2022-12-08T19:50:42.047Z,99139.06
2022-12-08T19:53:13.794Z,99143.06
2022-12-08T19:55:43.914Z,99146.56
2022-12-08T19:58:13.664Z,99143.41
2022-12-08T20:00:43.085Z,99137.06
2022-12-08T20:03:17.481Z,99139.31
2022-12-08T20:05:48.088Z,99145.66
2022-12-08T20:08:17.406Z,99143.41
2022-12-08T20:10:46.930Z,99143.66
2022-12-08T20:13:36.125Z,99138.38
2022-12-08T20:16:04.890Z,99132.50
2022-12-08T20:18:36.468Z,99138.25
2022-12-08T20:21:05.658Z,99143.97
2022-12-08T20:23:35.732Z,99145.31
2022-12-08T20:26:06.800Z,99144.00
2022-12-08T20:28:37.417Z,99139.41
2022-12-08T20:31:06.669Z,99142.81
2022-12-08T20:33:35.469Z,99143.06
2022-12-08T20:36:07.530Z,99142.13
2022-12-08T20:38:37.075Z,99147.28
2022-12-08T20:41:10.519Z,99148.81
2022-12-08T20:43:40.291Z,99133.91
2022-12-08T20:46:10.220Z,99144.00
2022-12-08T20:48:39.178Z,99139.75
2022-12-08T20:51:08.363Z,99141.06
2022-12-08T20:53:36.632Z,99136.00
2022-12-08T20:56:04.999Z,99137.44
2022-12-08T20:58:33.293Z,99131.44
2022-12-08T21:01:09.630Z,99140.13
2022-12-08T21:03:38.270Z,99136.47
2022-12-08T21:06:08.602Z,99137.53
2022-12-08T21:08:38.530Z,99135.78
2022-12-08T21:11:09.111Z,99135.31
2022-12-08T21:13:39.828Z,99139.19
2022-12-08T21:16:14.229Z,99129.94
2022-12-08T21:18:43.559Z,99125.38
2022-12-08T21:21:15.210Z,99135.09
2022-12-08T21:23:48.668Z,99134.63
2022-12-08T21:26:19.687Z,99140.94
2022-12-08T21:28:48.897Z,99134.38
2022-12-08T21:31:21.734Z,99139.19
2022-12-08T21:33:51.070Z,99135.56
2022-12-08T21:36:22.155Z,99134.28
2022-12-08T21:38:50.960Z,99116.81
2022-12-08T21:41:37.373Z,99123.50
2022-12-08T21:44:06.661Z,99125.97
2022-12-08T21:46:37.640Z,99125.72
2022-12-08T21:49:06.777Z,99118.19
2022-12-08T21:51:38.027Z,99122.69
2022-12-08T21:54:07.042Z,99127.69
2022-12-08T21:56:35.824Z,99128.28
2022-12-08T21:59:04.595Z,99134.13
2022-12-08T22:01:33.442Z,99142.59
2022-12-08T22:04:03.632Z,99141.19
2022-12-08T22:06:32.715Z,99139.53
2022-12-08T22:09:01.359Z,99138.22
2022-12-08T22:11:30.921Z,99135.56
2022-12-08T22:13:59.991Z,99143.63
2022-12-08T22:16:28.545Z,99141.88
2022-12-08T22:19:02.016Z,99139.97
2022-12-08T22:21:31.977Z,99142.66
2022-12-08T22:24:01.013Z,99137.47
2022-12-08T22:26:29.426Z,99141.19
2022-12-08T22:28:58.424Z,99142.00
2022-12-08T22:31:26.993Z,99141.34
2022-12-08T22:33:55.795Z,99137.84
2022-12-08T22:36:27.482Z,99142.25
2022-12-08T22:38:58.922Z,99137.56
2022-12-08T22:41:27.512Z,99136.66
2022-12-08T22:43:58.448Z,99134.00
2022-12-08T22:46:28.758Z,99131.97
2022-12-08T22:48:57.108Z,99140.13
2022-12-08T22:51:25.631Z,99137.25
2022-12-08T22:53:54.478Z,99133.03
2022-12-08T22:56:24.150Z,99134.81
2022-12-08T22:58:52.877Z,99127.84
2022-12-08T23:01:27.341Z,99129.59
2022-12-08T23:03:55.823Z,99126.09
2022-12-08T23:06:25.486Z,99128.63
2022-12-08T23:08:58.123Z,99124.00
2022-12-08T23:11:33.284Z,99125.56
2022-12-08T23:14:03.448Z,99126.09
2022-12-08T23:16:35.334Z,99129.00
2022-12-08T23:19:05.603Z,99121.19
2022-12-08T23:21:36.150Z,99120.72
2022-12-08T23:24:05.692Z,99134.28
2022-12-08T23:26:40.877Z,99132.69
2022-12-08T23:29:11.262Z,99136.81
2022-12-08T23:31:41.433Z,99137.13
2022-12-08T23:34:13.401Z,99142.78
2022-12-08T23:36:42.087Z,99133.59
2022-12-08T23:39:12.709Z,99132.28
2022-12-08T23:41:43.781Z,99124.94
2022-12-08T23:44:12.435Z,99124.03
2022-12-08T23:46:41.367Z,99122.13
2022-12-08T23:49:09.722Z,99121.53
2022-12-08T23:51:38.155Z,99115.25
2022-12-08T23:54:09.796Z,99121.63
2022-12-08T23:56:38.628Z,99110.03
2022-12-08T23:59:08.216Z,99105.88
